sensor_id;sensor_type;location;lat;lon;timestamp;pressure;altitude;pressure_sealevel;temperature;humidity
16595;BME280;8410;52.532;13.336;2023-06-19T00:01:01;100901.50;;;22.39;69.41
16595;BME280;8410;52.532;13.336;2023-06-19T00:03:29;100895.84;;;22.51;68.60
16595;BME280;8410;52.532;13.336;2023-06-19T00:05:56;100893.53;;;22.42;68.93
16595;BME280;8410;52.532;13.336;2023-06-19T00:08:25;100896.81;;;22.49;68.69
16595;BME280;8410;52.532;13.336;2023-06-19T00:10:54;100893.38;;;22.46;69.31
16595;BME280;8410;52.532;13.336;2023-06-19T00:13:22;100890.22;;;22.37;69.76
16595;BME280;8410;52.532;13.336;2023-06-19T00:15:49;100891.94;;;22.38;69.64
16595;BME280;8410;52.532;13.336;2023-06-19T00:18:17;100893.44;;;22.45;69.46
16595;BME280;8410;52.532;13.336;2023-06-19T00:20:46;100898.38;;;22.54;68.70
16595;BME280;8410;52.532;13.336;2023-06-19T00:23:13;100897.44;;;22.55;68.58
16595;BME280;8410;52.532;13.336;2023-06-19T00:25:44;100895.09;;;22.48;68.91
16595;BME280;8410;52.532;13.336;2023-06-19T00:28:12;100894.94;;;22.52;68.87
16595;BME280;8410;52.532;13.336;2023-06-19T00:30:41;100898.25;;;22.57;68.78
16595;BME280;8410;52.532;13.336;2023-06-19T00:33:09;100902.31;;;22.41;68.42
16595;BME280;8410;52.532;13.336;2023-06-19T00:35:36;100902.28;;;22.67;68.31
16595;BME280;8410;52.532;13.336;2023-06-19T00:38:05;100901.69;;;22.59;69.16
16595;BME280;8410;52.532;13.336;2023-06-19T00:40:34;100895.63;;;22.57;68.51
16595;BME280;8410;52.532;13.336;2023-06-19T00:43:03;100898.03;;;22.63;68.96
16595;BME280;8410;52.532;13.336;2023-06-19T00:45:31;100898.00;;;22.65;68.43
16595;BME280;8410;52.532;13.336;2023-06-19T00:47:59;100895.28;;;22.66;68.63
16595;BME280;8410;52.532;13.336;2023-06-19T00:50:28;100896.34;;;22.37;69.54
16595;BME280;8410;52.532;13.336;2023-06-19T00:52:56;100895.78;;;22.78;67.97
16595;BME280;8410;52.532;13.336;2023-06-19T00:55:25;100904.84;;;22.44;69.54
16595;BME280;8410;52.532;13.336;2023-06-19T00:57:55;100902.69;;;22.02;70.25
16595;BME280;8410;52.532;13.336;2023-06-19T01:00:24;100899.03;;;22.34;69.71
16595;BME280;8410;52.532;13.336;2023-06-19T01:02:52;100894.56;;;22.63;68.65
16595;BME280;8410;52.532;13.336;2023-06-19T01:05:19;100890.03;;;22.43;68.37
16595;BME280;8410;52.532;13.336;2023-06-19T01:07:52;100877.84;;;22.65;68.19
16595;BME280;8410;52.532;13.336;2023-06-19T01:10:26;100896.81;;;22.74;67.58
16595;BME280;8410;52.532;13.336;2023-06-19T01:12:56;100882.97;;;22.68;67.19
16595;BME280;8410;52.532;13.336;2023-06-19T01:15:25;100877.97;;;22.62;67.65
16595;BME280;8410;52.532;13.336;2023-06-19T01:17:55;100883.94;;;22.14;69.88
16595;BME280;8410;52.532;13.336;2023-06-19T01:20:22;100883.63;;;22.50;68.42
16595;BME280;8410;52.532;13.336;2023-06-19T01:22:52;100888.34;;;22.65;68.23
16595;BME280;8410;52.532;13.336;2023-06-19T01:25:23;100883.75;;;22.47;68.48
16595;BME280;8410;52.532;13.336;2023-06-19T01:27:51;100879.03;;;22.57;67.92
16595;BME280;8410;52.532;13.336;2023-06-19T01:30:19;100879.88;;;22.57;67.95
16595;BME280;8410;52.532;13.336;2023-06-19T01:32:50;100875.63;;;22.30;68.57
16595;BME280;8410;52.532;13.336;2023-06-19T01:35:23;100869.59;;;22.26;69.62
16595;BME280;8410;52.532;13.336;2023-06-19T01:37:53;100866.59;;;22.37;69.00
16595;BME280;8410;52.532;13.336;2023-06-19T01:40:23;100866.94;;;22.28;69.36
16595;BME280;8410;52.532;13.336;2023-06-19T01:42:53;100865.97;;;22.55;68.54
16595;BME280;8410;52.532;13.336;2023-06-19T01:45:21;100868.28;;;22.64;68.05
16595;BME280;8410;52.532;13.336;2023-06-19T01:47:48;100862.22;;;22.62;68.32
16595;BME280;8410;52.532;13.336;2023-06-19T01:50:16;100858.94;;;22.56;68.20
16595;BME280;8410;52.532;13.336;2023-06-19T01:52:44;100854.34;;;22.62;67.98
16595;BME280;8410;52.532;13.336;2023-06-19T01:55:13;100860.34;;;22.41;68.30
16595;BME280;8410;52.532;13.336;2023-06-19T01:57:41;100851.81;;;22.34;68.30
16595;BME280;8410;52.532;13.336;2023-06-19T02:00:09;100846.13;;;22.48;68.08
16595;BME280;8410;52.532;13.336;2023-06-19T02:02:37;100848.28;;;22.60;67.73
16595;BME280;8410;52.532;13.336;2023-06-19T02:05:05;100852.34;;;22.69;67.06
16595;BME280;8410;52.532;13.336;2023-06-19T02:07:32;100847.13;;;22.17;69.03
16595;BME280;8410;52.532;13.336;2023-06-19T02:10:00;100846.81;;;22.28;67.96
16595;BME280;8410;52.532;13.336;2023-06-19T02:12:28;100844.50;;;22.17;68.47
16595;BME280;8410;52.532;13.336;2023-06-19T02:14:56;100843.72;;;21.89;68.95
16595;BME280;8410;52.532;13.336;2023-06-19T02:17:23;100831.44;;;21.91;69.71
16595;BME280;8410;52.532;13.336;2023-06-19T02:19:51;100834.75;;;22.48;68.35
16595;BME280;8410;52.532;13.336;2023-06-19T02:22:18;100830.66;;;22.40;67.77
16595;BME280;8410;52.532;13.336;2023-06-19T02:24:46;100829.50;;;21.96;68.38
16595;BME280;8410;52.532;13.336;2023-06-19T02:27:13;100826.69;;;22.02;68.72
16595;BME280;8410;52.532;13.336;2023-06-19T02:29:44;100828.34;;;22.31;68.36
16595;BME280;8410;52.532;13.336;2023-06-19T02:32:11;100824.16;;;22.26;68.41
16595;BME280;8410;52.532;13.336;2023-06-19T02:34:39;100830.56;;;22.42;67.77
16595;BME280;8410;52.532;13.336;2023-06-19T02:37:06;100827.94;;;22.42;67.94
16595;BME280;8410;52.532;13.336;2023-06-19T02:39:34;100830.25;;;22.51;67.59
16595;BME280;8410;52.532;13.336;2023-06-19T02:42:02;100819.81;;;22.50;67.87
16595;BME280;8410;52.532;13.336;2023-06-19T02:44:29;100824.22;;;22.49;67.86
16595;BME280;8410;52.532;13.336;2023-06-19T02:46:58;100822.50;;;22.48;67.97
16595;BME280;8410;52.532;13.336;2023-06-19T02:49:26;100826.78;;;22.26;68.75
16595;BME280;8410;52.532;13.336;2023-06-19T02:51:53;100828.06;;;22.39;68.08
16595;BME280;8410;52.532;13.336;2023-06-19T02:54:21;100829.88;;;22.37;67.96
16595;BME280;8410;52.532;13.336;2023-06-19T02:56:48;100833.09;;;22.45;68.33
16595;BME280;8410;52.532;13.336;2023-06-19T02:59:16;100823.03;;;22.33;68.19
16595;BME280;8410;52.532;13.336;2023-06-19T03:01:43;100819.06;;;22.46;67.91
16595;BME280;8410;52.532;13.336;2023-06-19T03:04:12;100820.09;;;22.42;68.68
16595;BME280;8410;52.532;13.336;2023-06-19T03:06:40;100821.44;;;22.29;68.40
16595;BME280;8410;52.532;13.336;2023-06-19T03:09:07;100816.50;;;22.19;69.26
16595;BME280;8410;52.532;13.336;2023-06-19T03:11:38;100817.03;;;22.29;69.03
16595;BME280;8410;52.532;13.336;2023-06-19T03:14:07;100817.34;;;22.45;68.35
16595;BME280;8410;52.532;13.336;2023-06-19T03:16:35;100816.19;;;22.29;68.91
16595;BME280;8410;52.532;13.336;2023-06-19T03:19:02;100815.41;;;22.50;68.24
16595;BME280;8410;52.532;13.336;2023-06-19T03:21:31;100821.19;;;22.60;68.03
16595;BME280;8410;52.532;13.336;2023-06-19T03:23:59;100825.47;;;22.62;68.02
16595;BME280;8410;52.532;13.336;2023-06-19T03:26:26;100829.31;;;22.77;67.77
16595;BME280;8410;52.532;13.336;2023-06-19T03:28:54;100827.09;;;22.90;67.12
16595;BME280;8410;52.532;13.336;2023-06-19T03:31:21;100825.22;;;22.94;66.87
16595;BME280;8410;52.532;13.336;2023-06-19T03:33:49;100831.75;;;22.82;68.46
16595;BME280;8410;52.532;13.336;2023-06-19T03:36:16;100832.84;;;22.76;68.31
16595;BME280;8410;52.532;13.336;2023-06-19T03:38:45;100841.38;;;22.83;68.44
16595;BME280;8410;52.532;13.336;2023-06-19T03:41:12;100834.84;;;22.93;67.81
16595;BME280;8410;52.532;13.336;2023-06-19T03:43:40;100844.88;;;23.07;67.21
16595;BME280;8410;52.532;13.336;2023-06-19T03:46:07;100844.19;;;24.32;64.64
16595;BME280;8410;52.532;13.336;2023-06-19T03:48:35;100831.97;;;26.19;57.97
16595;BME280;8410;52.532;13.336;2023-06-19T03:51:03;100830.84;;;27.55;54.68
16595;BME280;8410;52.532;13.336;2023-06-19T03:53:30;100824.28;;;26.98;54.36
16595;BME280;8410;52.532;13.336;2023-06-19T03:55:59;100841.28;;;24.79;59.86
16595;BME280;8410;52.532;13.336;2023-06-19T03:58:27;100841.31;;;23.53;63.04
16595;BME280;8410;52.532;13.336;2023-06-19T04:00:54;100832.41;;;23.58;63.05
16595;BME280;8410;52.532;13.336;2023-06-19T04:03:22;100830.41;;;23.41;63.85
16595;BME280;8410;52.532;13.336;2023-06-19T04:05:49;100832.66;;;23.28;64.04
16595;BME280;8410;52.532;13.336;2023-06-19T04:08:17;100825.75;;;23.03;64.96
16595;BME280;8410;52.532;13.336;2023-06-19T04:10:44;100822.69;;;22.90;66.15
16595;BME280;8410;52.532;13.336;2023-06-19T04:13:13;100817.75;;;22.83;66.89
16595;BME280;8410;52.532;13.336;2023-06-19T04:15:42;100804.72;;;23.03;65.56
16595;BME280;8410;52.532;13.336;2023-06-19T04:18:11;100804.72;;;23.03;65.29
16595;BME280;8410;52.532;13.336;2023-06-19T04:20:39;100807.16;;;23.09;65.08
16595;BME280;8410;52.532;13.336;2023-06-19T04:23:06;100817.66;;;22.61;66.50
16595;BME280;8410;52.532;13.336;2023-06-19T04:25:34;100811.94;;;22.98;65.48
16595;BME280;8410;52.532;13.336;2023-06-19T04:28:02;100827.19;;;22.63;66.71
16595;BME280;8410;52.532;13.336;2023-06-19T04:30:31;100818.72;;;23.04;65.44
16595;BME280;8410;52.532;13.336;2023-06-19T04:32:59;100817.88;;;23.03;65.74
16595;BME280;8410;52.532;13.336;2023-06-19T04:35:27;100822.22;;;23.04;65.33
16595;BME280;8410;52.532;13.336;2023-06-19T04:37:54;100821.97;;;23.10;65.59
16595;BME280;8410;52.532;13.336;2023-06-19T04:40:22;100821.16;;;23.08;65.10
16595;BME280;8410;52.532;13.336;2023-06-19T04:42:52;100834.41;;;23.05;65.76
16595;BME280;8410;52.532;13.336;2023-06-19T04:45:20;100835.16;;;23.09;64.92
16595;BME280;8410;52.532;13.336;2023-06-19T04:47:49;100839.56;;;23.08;65.56
16595;BME280;8410;52.532;13.336;2023-06-19T04:50:19;100844.31;;;22.74;66.33
16595;BME280;8410;52.532;13.336;2023-06-19T04:52:47;100840.66;;;23.03;65.38
16595;BME280;8410;52.532;13.336;2023-06-19T04:55:17;100840.34;;;23.10;64.98
16595;BME280;8410;52.532;13.336;2023-06-19T04:57:45;100834.38;;;23.07;65.06
16595;BME280;8410;52.532;13.336;2023-06-19T05:00:13;100843.16;;;23.06;65.41
16595;BME280;8410;52.532;13.336;2023-06-19T05:02:41;100837.84;;;23.07;65.57
16595;BME280;8410;52.532;13.336;2023-06-19T05:05:11;100845.69;;;22.84;66.25
16595;BME280;8410;52.532;13.336;2023-06-19T05:07:39;100851.31;;;22.98;65.29
16595;BME280;8410;52.532;13.336;2023-06-19T05:10:07;100848.34;;;23.07;65.38
16595;BME280;8410;52.532;13.336;2023-06-19T05:12:35;100851.09;;;23.04;65.66
16595;BME280;8410;52.532;13.336;2023-06-19T05:15:03;100855.53;;;23.02;65.77
16595;BME280;8410;52.532;13.336;2023-06-19T05:17:31;100855.31;;;23.08;65.51
16595;BME280;8410;52.532;13.336;2023-06-19T05:19:58;100854.84;;;23.21;65.08
16595;BME280;8410;52.532;13.336;2023-06-19T05:22:27;100858.09;;;23.04;65.91
16595;BME280;8410;52.532;13.336;2023-06-19T05:24:54;100860.50;;;23.10;65.87
16595;BME280;8410;52.532;13.336;2023-06-19T05:27:22;100856.00;;;23.14;65.14
16595;BME280;8410;52.532;13.336;2023-06-19T05:29:50;100850.63;;;23.17;65.77
16595;BME280;8410;52.532;13.336;2023-06-19T05:32:17;100856.56;;;23.22;65.73
16595;BME280;8410;52.532;13.336;2023-06-19T05:34:45;100856.44;;;23.25;65.55
16595;BME280;8410;52.532;13.336;2023-06-19T05:37:12;100861.75;;;23.23;66.23
16595;BME280;8410;52.532;13.336;2023-06-19T05:39:41;100856.44;;;23.25;65.71
16595;BME280;8410;52.532;13.336;2023-06-19T05:42:08;100861.69;;;23.25;65.51
16595;BME280;8410;52.532;13.336;2023-06-19T05:44:36;100860.31;;;23.15;65.44
16595;BME280;8410;52.532;13.336;2023-06-19T05:47:04;100863.47;;;23.24;65.52
16595;BME280;8410;52.532;13.336;2023-06-19T05:49:31;100862.91;;;23.38;65.38
16595;BME280;8410;52.532;13.336;2023-06-19T05:51:59;100852.16;;;23.22;65.22
16595;BME280;8410;52.532;13.336;2023-06-19T05:54:27;100864.06;;;22.84;65.78
16595;BME280;8410;52.532;13.336;2023-06-19T05:56:56;100862.25;;;23.33;65.02
16595;BME280;8410;52.532;13.336;2023-06-19T05:59:23;100858.06;;;23.51;64.70
16595;BME280;8410;52.532;13.336;2023-06-19T06:01:52;100856.09;;;23.34;65.05
16595;BME280;8410;52.532;13.336;2023-06-19T06:04:21;100851.94;;;23.28;64.41
16595;BME280;8410;52.532;13.336;2023-06-19T06:06:49;100848.56;;;23.01;66.04
16595;BME280;8410;52.532;13.336;2023-06-19T06:09:17;100857.72;;;22.41;67.49
16595;BME280;8410;52.532;13.336;2023-06-19T06:11:44;100856.66;;;22.95;66.37
16595;BME280;8410;52.532;13.336;2023-06-19T06:14:13;100860.13;;;22.97;66.15
16595;BME280;8410;52.532;13.336;2023-06-19T06:16:40;100855.91;;;22.43;67.57
16595;BME280;8410;52.532;13.336;2023-06-19T06:19:08;100853.44;;;22.63;66.89
16595;BME280;8410;52.532;13.336;2023-06-19T06:21:35;100857.72;;;22.41;67.81
16595;BME280;8410;52.532;13.336;2023-06-19T06:24:04;100844.97;;;23.49;65.40
16595;BME280;8410;52.532;13.336;2023-06-19T06:26:31;100850.47;;;23.43;65.30
16595;BME280;8410;52.532;13.336;2023-06-19T06:28:59;100850.22;;;23.49;65.28
16595;BME280;8410;52.532;13.336;2023-06-19T06:31:28;100849.34;;;23.71;64.52
16595;BME280;8410;52.532;13.336;2023-06-19T06:33:55;100853.63;;;23.75;64.99
16595;BME280;8410;52.532;13.336;2023-06-19T06:36:23;100851.69;;;24.01;64.41
16595;BME280;8410;52.532;13.336;2023-06-19T06:39:02;100851.44;;;24.07;64.77
16595;BME280;8410;52.532;13.336;2023-06-19T06:41:29;100863.56;;;23.89;65.67
16595;BME280;8410;52.532;13.336;2023-06-19T06:43:57;100859.84;;;24.15;64.64
16595;BME280;8410;52.532;13.336;2023-06-19T06:46:25;100868.41;;;24.20;64.48
16595;BME280;8410;52.532;13.336;2023-06-19T06:48:54;100866.44;;;24.25;64.18
16595;BME280;8410;52.532;13.336;2023-06-19T06:51:21;100862.22;;;24.21;64.49
16595;BME280;8410;52.532;13.336;2023-06-19T06:53:49;100854.34;;;24.01;64.43
16595;BME280;8410;52.532;13.336;2023-06-19T06:56:17;100863.28;;;24.17;64.25
16595;BME280;8410;52.532;13.336;2023-06-19T06:58:45;100865.25;;;24.32;64.01
16595;BME280;8410;52.532;13.336;2023-06-19T07:01:13;100866.56;;;24.42;64.38
16595;BME280;8410;52.532;13.336;2023-06-19T07:03:41;100874.44;;;24.42;64.31
16595;BME280;8410;52.532;13.336;2023-06-19T07:06:10;100861.72;;;24.54;63.94
16595;BME280;8410;52.532;13.336;2023-06-19T07:08:37;100867.25;;;24.48;63.42
16595;BME280;8410;52.532;13.336;2023-06-19T07:11:07;100873.03;;;24.35;63.71
16595;BME280;8410;52.532;13.336;2023-06-19T07:13:34;100864.28;;;24.14;64.46
16595;BME280;8410;52.532;13.336;2023-06-19T07:16:02;100861.25;;;23.81;64.71
16595;BME280;8410;52.532;13.336;2023-06-19T07:18:31;100859.28;;;23.86;64.53
16595;BME280;8410;52.532;13.336;2023-06-19T07:20:59;100853.28;;;24.46;63.12
16595;BME280;8410;52.532;13.336;2023-06-19T07:23:28;100858.97;;;24.57;63.02
16595;BME280;8410;52.532;13.336;2023-06-19T07:25:56;100860.41;;;24.83;62.83
16595;BME280;8410;52.532;13.336;2023-06-19T07:28:23;100860.50;;;24.81;62.72
16595;BME280;8410;52.532;13.336;2023-06-19T07:30:51;100871.13;;;24.59;61.94
16595;BME280;8410;52.532;13.336;2023-06-19T07:33:18;100870.03;;;24.84;62.90
16595;BME280;8410;52.532;13.336;2023-06-19T07:35:46;100872.50;;;25.07;62.62
16595;BME280;8410;52.532;13.336;2023-06-19T07:38:14;100868.97;;;25.07;62.69
16595;BME280;8410;52.532;13.336;2023-06-19T07:40:44;100870.03;;;25.23;61.99
16595;BME280;8410;52.532;13.336;2023-06-19T07:43:11;100878.88;;;25.02;62.19
16595;BME280;8410;52.532;13.336;2023-06-19T07:45:39;100874.22;;;25.27;62.45
16595;BME280;8410;52.532;13.336;2023-06-19T07:48:06;100873.03;;;25.35;62.31
16595;BME280;8410;52.532;13.336;2023-06-19T07:50:34;100872.50;;;25.07;62.32
16595;BME280;8410;52.532;13.336;2023-06-19T07:53:01;100883.06;;;25.26;61.08
16595;BME280;8410;52.532;13.336;2023-06-19T07:55:29;100873.94;;;25.34;61.20
16595;BME280;8410;52.532;13.336;2023-06-19T07:57:57;100870.94;;;25.41;60.97
16595;BME280;8410;52.532;13.336;2023-06-19T08:00:25;100871.50;;;25.48;60.60
16595;BME280;8410;52.532;13.336;2023-06-19T08:02:53;100870.72;;;25.46;60.51
16595;BME280;8410;52.532;13.336;2023-06-19T08:05:20;100878.94;;;25.40;60.88
16595;BME280;8410;52.532;13.336;2023-06-19T08:07:48;100880.16;;;25.12;61.60
16595;BME280;8410;52.532;13.336;2023-06-19T08:10:15;100881.06;;;25.32;61.05
16595;BME280;8410;52.532;13.336;2023-06-19T08:12:44;100875.81;;;25.32;61.15
16595;BME280;8410;52.532;13.336;2023-06-19T08:15:13;100882.88;;;24.92;62.09
16595;BME280;8410;52.532;13.336;2023-06-19T08:17:41;100882.03;;;25.10;60.90
16595;BME280;8410;52.532;13.336;2023-06-19T08:20:09;100876.00;;;25.46;60.41
16595;BME280;8410;52.532;13.336;2023-06-19T08:22:36;100885.03;;;25.59;60.40
16595;BME280;8410;52.532;13.336;2023-06-19T08:25:04;100884.44;;;25.71;59.88
16595;BME280;8410;52.532;13.336;2023-06-19T08:27:32;100883.97;;;25.25;60.85
16595;BME280;8410;52.532;13.336;2023-06-19T08:30:00;100879.28;;;25.68;59.98
16595;BME280;8410;52.532;13.336;2023-06-19T08:32:29;100885.81;;;25.61;60.38
16595;BME280;8410;52.532;13.336;2023-06-19T08:34:56;100884.94;;;25.61;60.94
16595;BME280;8410;52.532;13.336;2023-06-19T08:37:24;100887.47;;;25.45;61.58
16595;BME280;8410;52.532;13.336;2023-06-19T08:39:51;100882.72;;;25.70;59.92
16595;BME280;8410;52.532;13.336;2023-06-19T08:42:19;100876.97;;;25.62;60.07
16595;BME280;8410;52.532;13.336;2023-06-19T08:44:46;100875.84;;;25.49;61.14
16595;BME280;8410;52.532;13.336;2023-06-19T08:47:14;100872.53;;;25.63;60.76
16595;BME280;8410;52.532;13.336;2023-06-19T08:49:43;100863.63;;;25.65;59.89
16595;BME280;8410;52.532;13.336;2023-06-19T08:52:11;100864.38;;;25.50;60.71
16595;BME280;8410;52.532;13.336;2023-06-19T08:54:38;100862.38;;;25.55;60.69
16595;BME280;8410;52.532;13.336;2023-06-19T08:57:10;100864.69;;;25.80;59.35
16595;BME280;8410;52.532;13.336;2023-06-19T08:59:39;100851.88;;;25.72;60.10
16595;BME280;8410;52.532;13.336;2023-06-19T09:02:06;100863.09;;;25.59;59.58
16595;BME280;8410;52.532;13.336;2023-06-19T09:04:34;100866.47;;;25.80;59.72
16595;BME280;8410;52.532;13.336;2023-06-19T09:07:03;100867.91;;;25.68;60.34
16595;BME280;8410;52.532;13.336;2023-06-19T09:09:32;100871.34;;;26.06;59.54
16595;BME280;8410;52.532;13.336;2023-06-19T09:12:01;100875.94;;;25.84;59.94
16595;BME280;8410;52.532;13.336;2023-06-19T09:14:33;100880.91;;;25.53;60.42
16595;BME280;8410;52.532;13.336;2023-06-19T09:17:01;100883.44;;;25.55;60.19
16595;BME280;8410;52.532;13.336;2023-06-19T09:19:29;100886.72;;;25.60;60.27
16595;BME280;8410;52.532;13.336;2023-06-19T09:22:00;100882.13;;;26.02;59.85
16595;BME280;8410;52.532;13.336;2023-06-19T09:24:37;100885.59;;;25.47;60.59
16595;BME280;8410;52.532;13.336;2023-06-19T09:27:06;100882.94;;;25.66;61.01
16595;BME280;8410;52.532;13.336;2023-06-19T09:29:36;100877.22;;;26.11;59.37
16595;BME280;8410;52.532;13.336;2023-06-19T09:32:16;100879.03;;;25.37;61.41
16595;BME280;8410;52.532;13.336;2023-06-19T09:34:43;100885.56;;;25.66;61.06
16595;BME280;8410;52.532;13.336;2023-06-19T09:37:11;100874.72;;;25.91;60.81
16595;BME280;8410;52.532;13.336;2023-06-19T09:39:41;100878.69;;;26.00;59.89
16595;BME280;8410;52.532;13.336;2023-06-19T09:42:09;100880.38;;;26.35;59.68
16595;BME280;8410;52.532;13.336;2023-06-19T09:44:40;100890.41;;;26.29;60.16
16595;BME280;8410;52.532;13.336;2023-06-19T09:47:15;100891.03;;;26.16;60.23
16595;BME280;8410;52.532;13.336;2023-06-19T09:49:48;100889.47;;;26.47;59.68
16595;BME280;8410;52.532;13.336;2023-06-19T09:52:16;100892.66;;;26.71;60.04
16595;BME280;8410;52.532;13.336;2023-06-19T09:54:47;100891.44;;;26.61;59.25
16595;BME280;8410;52.532;13.336;2023-06-19T09:57:15;100889.63;;;26.79;59.26
16595;BME280;8410;52.532;13.336;2023-06-19T09:59:45;100880.16;;;26.40;60.04
16595;BME280;8410;52.532;13.336;2023-06-19T10:02:14;100871.88;;;26.81;59.36
16595;BME280;8410;52.532;13.336;2023-06-19T10:04:43;100861.31;;;26.81;59.78
16595;BME280;8410;52.532;13.336;2023-06-19T10:07:16;100857.09;;;26.44;60.80
16595;BME280;8410;52.532;13.336;2023-06-19T10:09:59;100866.41;;;26.68;60.02
16595;BME280;8410;52.532;13.336;2023-06-19T10:12:37;100855.47;;;26.58;59.76
16595;BME280;8410;52.532;13.336;2023-06-19T10:15:09;100862.53;;;26.40;60.20
16595;BME280;8410;52.532;13.336;2023-06-19T10:17:37;100855.81;;;26.17;60.67
16595;BME280;8410;52.532;13.336;2023-06-19T10:20:06;100844.47;;;26.15;61.38
16595;BME280;8410;52.532;13.336;2023-06-19T10:22:50;100850.78;;;26.46;60.64
16595;BME280;8410;52.532;13.336;2023-06-19T10:25:23;100851.97;;;26.91;59.55
16595;BME280;8410;52.532;13.336;2023-06-19T10:27:52;100841.22;;;26.94;59.82
16595;BME280;8410;52.532;13.336;2023-06-19T10:30:21;100839.47;;;26.61;61.07
16595;BME280;8410;52.532;13.336;2023-06-19T10:32:48;100843.44;;;26.86;59.30
16595;BME280;8410;52.532;13.336;2023-06-19T10:35:17;100824.88;;;27.03;60.31
16595;BME280;8410;52.532;13.336;2023-06-19T10:37:47;100817.91;;;27.18;59.74
16595;BME280;8410;52.532;13.336;2023-06-19T10:40:15;100819.06;;;27.13;59.80
16595;BME280;8410;52.532;13.336;2023-06-19T10:42:44;100819.25;;;26.94;60.48
16595;BME280;8410;52.532;13.336;2023-06-19T10:45:14;100821.25;;;26.73;60.50
16595;BME280;8410;52.532;13.336;2023-06-19T10:47:43;100806.97;;;26.77;61.09
16595;BME280;8410;52.532;13.336;2023-06-19T10:50:12;100803.50;;;26.92;60.31
16595;BME280;8410;52.532;13.336;2023-06-19T10:52:42;100805.91;;;26.64;60.84
16595;BME280;8410;52.532;13.336;2023-06-19T10:55:11;100787.03;;;26.71;60.44
16595;BME280;8410;52.532;13.336;2023-06-19T10:57:40;100792.66;;;26.14;61.75
16595;BME280;8410;52.532;13.336;2023-06-19T11:00:10;100790.47;;;26.23;60.89
16595;BME280;8410;52.532;13.336;2023-06-19T11:02:40;100788.28;;;26.31;61.57
16595;BME280;8410;52.532;13.336;2023-06-19T11:05:10;100791.81;;;26.47;61.04
16595;BME280;8410;52.532;13.336;2023-06-19T11:07:38;100792.31;;;26.21;61.18
16595;BME280;8410;52.532;13.336;2023-06-19T11:10:07;100783.78;;;26.15;61.62
16595;BME280;8410;52.532;13.336;2023-06-19T11:12:34;100794.28;;;26.00;62.20
16595;BME280;8410;52.532;13.336;2023-06-19T11:15:03;100801.34;;;26.50;60.95
16595;BME280;8410;52.532;13.336;2023-06-19T11:17:33;100802.03;;;26.71;60.83
16595;BME280;8410;52.532;13.336;2023-06-19T11:20:01;100790.78;;;27.46;59.27
16595;BME280;8410;52.532;13.336;2023-06-19T11:22:36;100788.94;;;27.17;59.91
16595;BME280;8410;52.532;13.336;2023-06-19T11:25:06;100788.50;;;27.09;60.15
16595;BME280;8410;52.532;13.336;2023-06-19T11:27:33;100796.78;;;27.18;58.47
16595;BME280;8410;52.532;13.336;2023-06-19T11:30:01;100799.34;;;27.66;58.02
16595;BME280;8410;52.532;13.336;2023-06-19T11:32:32;100792.16;;;27.54;58.02
16595;BME280;8410;52.532;13.336;2023-06-19T11:35:07;100802.00;;;27.66;57.76
16595;BME280;8410;52.532;13.336;2023-06-19T11:37:35;100797.09;;;27.74;56.70
16595;BME280;8410;52.532;13.336;2023-06-19T11:40:02;100799.25;;;27.83;57.08
16595;BME280;8410;52.532;13.336;2023-06-19T11:42:44;100794.66;;;27.71;56.97
16595;BME280;8410;52.532;13.336;2023-06-19T11:45:12;100794.56;;;27.88;56.54
16595;BME280;8410;52.532;13.336;2023-06-19T11:47:40;100790.91;;;27.75;56.88
16595;BME280;8410;52.532;13.336;2023-06-19T11:50:10;100787.47;;;27.89;56.88
16595;BME280;8410;52.532;13.336;2023-06-19T11:52:38;100798.53;;;27.96;56.27
16595;BME280;8410;52.532;13.336;2023-06-19T11:55:06;100794.88;;;28.41;55.74
16595;BME280;8410;52.532;13.336;2023-06-19T11:57:34;100793.41;;;27.92;57.24
16595;BME280;8410;52.532;13.336;2023-06-19T12:00:02;100799.69;;;28.06;56.18
16595;BME280;8410;52.532;13.336;2023-06-19T12:02:33;100786.16;;;28.55;54.73
16595;BME280;8410;52.532;13.336;2023-06-19T12:05:01;100782.59;;;28.40;55.34
16595;BME280;8410;52.532;13.336;2023-06-19T12:07:29;100785.91;;;28.15;55.78
16595;BME280;8410;52.532;13.336;2023-06-19T12:09:57;100791.78;;;28.20;55.63
16595;BME280;8410;52.532;13.336;2023-06-19T12:12:27;100791.06;;;27.72;54.21
16595;BME280;8410;52.532;13.336;2023-06-19T12:14:55;100787.09;;;27.79;53.83
16595;BME280;8410;52.532;13.336;2023-06-19T12:17:23;100785.91;;;28.15;52.48
16595;BME280;8410;52.532;13.336;2023-06-19T12:19:50;100783.59;;;28.09;52.64
16595;BME280;8410;52.532;13.336;2023-06-19T12:22:19;100770.59;;;28.34;52.23
16595;BME280;8410;52.532;13.336;2023-06-19T12:24:48;100764.56;;;28.61;51.91
16595;BME280;8410;52.532;13.336;2023-06-19T12:27:15;100760.59;;;28.54;50.87
16595;BME280;8410;52.532;13.336;2023-06-19T12:29:43;100764.66;;;28.74;50.90
16595;BME280;8410;52.532;13.336;2023-06-19T12:32:10;100759.22;;;28.90;50.79
16595;BME280;8410;52.532;13.336;2023-06-19T12:34:38;100762.22;;;28.98;50.99
16595;BME280;8410;52.532;13.336;2023-06-19T12:37:06;100768.34;;;28.71;50.29
16595;BME280;8410;52.532;13.336;2023-06-19T12:39:34;100768.84;;;29.05;49.76
16595;BME280;8410;52.532;13.336;2023-06-19T12:42:03;100774.22;;;29.03;49.74
16595;BME280;8410;52.532;13.336;2023-06-19T12:44:30;100760.56;;;28.83;50.18
16595;BME280;8410;52.532;13.336;2023-06-19T12:46:58;100763.66;;;28.89;50.17
16595;BME280;8410;52.532;13.336;2023-06-19T12:49:26;100757.50;;;28.89;50.03
16595;BME280;8410;52.532;13.336;2023-06-19T12:51:54;100765.69;;;28.71;50.41
16595;BME280;8410;52.532;13.336;2023-06-19T12:54:21;100762.47;;;28.52;50.51
16595;BME280;8410;52.532;13.336;2023-06-19T12:56:49;100759.81;;;28.23;51.56